sensor_id;sensor_type;location;lat;lon;timestamp;P1;durP1;ratioP1;P2;durP2;ratioP2
7231;SDS011;3657;49.630;11.018;2023-01-30T00:01:19;31.07;;;27.90;;
7231;SDS011;3657;49.630;11.018;2023-01-30T00:03:47;28.40;;;25.43;;
7231;SDS011;3657;49.630;11.018;2023-01-30T00:06:14;31.50;;;28.23;;
7231;SDS011;3657;49.630;11.018;2023-01-30T00:08:42;30.03;;;27.00;;
7231;SDS011;3657;49.630;11.018;2023-01-30T00:11:10;30.97;;;27.70;;
7231;SDS011;3657;49.630;11.018;2023-01-30T00:13:39;29.97;;;26.83;;
7231;SDS011;3657;49.630;11.018;2023-01-30T00:22:17;31.83;;;28.27;;
7231;SDS011;3657;49.630;11.018;2023-01-30T00:24:45;27.20;;;24.50;;
7231;SDS011;3657;49.630;11.018;2023-01-30T00:27:11;32.57;;;27.97;;
7231;SDS011;3657;49.630;11.018;2023-01-30T00:29:38;28.00;;;25.20;;
7231;SDS011;3657;49.630;11.018;2023-01-30T00:32:05;28.77;;;25.77;;
7231;SDS011;3657;49.630;11.018;2023-01-30T00:34:31;27.57;;;24.73;;
7231;SDS011;3657;49.630;11.018;2023-01-30T00:36:58;25.50;;;23.10;;
7231;SDS011;3657;49.630;11.018;2023-01-30T00:39:25;27.47;;;24.70;;
7231;SDS011;3657;49.630;11.018;2023-01-30T00:41:53;26.70;;;24.03;;
7231;SDS011;3657;49.630;11.018;2023-01-30T00:44:37;26.03;;;23.40;;
7231;SDS011;3657;49.630;11.018;2023-01-30T00:47:21;26.13;;;23.63;;
7231;SDS011;3657;49.630;11.018;2023-01-30T00:49:49;25.27;;;22.83;;
7231;SDS011;3657;49.630;11.018;2023-01-30T00:52:15;25.67;;;23.27;;
7231;SDS011;3657;49.630;11.018;2023-01-30T00:54:42;26.40;;;23.97;;
7231;SDS011;3657;49.630;11.018;2023-01-30T00:57:10;27.10;;;24.70;;
7231;SDS011;3657;49.630;11.018;2023-01-30T00:59:37;27.10;;;24.50;;
7231;SDS011;3657;49.630;11.018;2023-01-30T01:02:03;27.30;;;24.40;;
7231;SDS011;3657;49.630;11.018;2023-01-30T01:04:30;26.40;;;23.80;;
7231;SDS011;3657;49.630;11.018;2023-01-30T01:07:07;27.73;;;25.07;;
7231;SDS011;3657;49.630;11.018;2023-01-30T01:09:33;28.10;;;25.23;;
7231;SDS011;3657;49.630;11.018;2023-01-30T01:12:00;29.13;;;26.03;;
7231;SDS011;3657;49.630;11.018;2023-01-30T01:14:28;29.23;;;26.33;;
7231;SDS011;3657;49.630;11.018;2023-01-30T01:16:55;28.57;;;25.57;;
7231;SDS011;3657;49.630;11.018;2023-01-30T01:19:21;29.70;;;26.77;;
7231;SDS011;3657;49.630;11.018;2023-01-30T01:21:48;29.33;;;26.33;;
7231;SDS011;3657;49.630;11.018;2023-01-30T01:24:15;27.23;;;24.63;;
7231;SDS011;3657;49.630;11.018;2023-01-30T01:26:42;30.90;;;27.03;;
7231;SDS011;3657;49.630;11.018;2023-01-30T01:29:10;29.00;;;26.10;;
7231;SDS011;3657;49.630;11.018;2023-01-30T01:31:39;28.53;;;25.70;;
7231;SDS011;3657;49.630;11.018;2023-01-30T01:34:05;27.77;;;24.97;;
7231;SDS011;3657;49.630;11.018;2023-01-30T01:36:32;32.07;;;28.73;;
7231;SDS011;3657;49.630;11.018;2023-01-30T01:38:59;28.90;;;26.00;;
7231;SDS011;3657;49.630;11.018;2023-01-30T01:41:27;30.17;;;27.00;;
7231;SDS011;3657;49.630;11.018;2023-01-30T01:43:58;29.17;;;26.17;;
7231;SDS011;3657;49.630;11.018;2023-01-30T01:46:27;28.10;;;25.10;;
7231;SDS011;3657;49.630;11.018;2023-01-30T01:48:57;30.33;;;27.17;;
7231;SDS011;3657;49.630;11.018;2023-01-30T01:51:27;28.30;;;25.40;;
7231;SDS011;3657;49.630;11.018;2023-01-30T01:53:57;28.33;;;25.40;;
7231;SDS011;3657;49.630;11.018;2023-01-30T01:56:28;29.63;;;26.53;;
7231;SDS011;3657;49.630;11.018;2023-01-30T01:58:58;31.40;;;27.10;;
7231;SDS011;3657;49.630;11.018;2023-01-30T02:01:28;28.23;;;25.33;;
7231;SDS011;3657;49.630;11.018;2023-01-30T02:03:57;29.03;;;25.93;;
7231;SDS011;3657;49.630;11.018;2023-01-30T02:06:29;27.57;;;24.77;;
7231;SDS011;3657;49.630;11.018;2023-01-30T02:08:57;28.27;;;25.30;;
7231;SDS011;3657;49.630;11.018;2023-01-30T02:11:29;28.13;;;25.13;;
7231;SDS011;3657;49.630;11.018;2023-01-30T02:14:02;28.23;;;25.23;;
7231;SDS011;3657;49.630;11.018;2023-01-30T02:16:29;26.33;;;23.60;;
7231;SDS011;3657;49.630;11.018;2023-01-30T02:18:57;27.53;;;24.70;;
7231;SDS011;3657;49.630;11.018;2023-01-30T02:21:43;26.23;;;23.47;;
7231;SDS011;3657;49.630;11.018;2023-01-30T02:24:37;27.40;;;24.67;;
7231;SDS011;3657;49.630;11.018;2023-01-30T02:30:23;26.73;;;24.17;;
7231;SDS011;3657;49.630;11.018;2023-01-30T02:33:10;25.20;;;22.50;;
7231;SDS011;3657;49.630;11.018;2023-01-30T02:35:52;25.43;;;22.90;;
7231;SDS011;3657;49.630;11.018;2023-01-30T02:38:29;26.97;;;23.83;;
7231;SDS011;3657;49.630;11.018;2023-01-30T02:41:12;28.17;;;25.17;;
7231;SDS011;3657;49.630;11.018;2023-01-30T02:43:50;27.30;;;24.40;;
7231;SDS011;3657;49.630;11.018;2023-01-30T02:46:29;26.03;;;23.30;;
7231;SDS011;3657;49.630;11.018;2023-01-30T02:49:01;29.07;;;25.50;;
7231;SDS011;3657;49.630;11.018;2023-01-30T02:51:33;27.40;;;24.57;;
7231;SDS011;3657;49.630;11.018;2023-01-30T02:54:01;24.97;;;22.33;;
7231;SDS011;3657;49.630;11.018;2023-01-30T02:56:39;26.60;;;23.83;;
7231;SDS011;3657;49.630;11.018;2023-01-30T02:59:11;26.00;;;23.30;;
7231;SDS011;3657;49.630;11.018;2023-01-30T03:01:49;27.60;;;24.70;;
7231;SDS011;3657;49.630;11.018;2023-01-30T03:04:39;30.40;;;26.60;;
7231;SDS011;3657;49.630;11.018;2023-01-30T03:07:16;25.10;;;22.50;;
7231;SDS011;3657;49.630;11.018;2023-01-30T03:09:54;26.97;;;24.30;;
7231;SDS011;3657;49.630;11.018;2023-01-30T03:12:28;25.97;;;23.33;;
7231;SDS011;3657;49.630;11.018;2023-01-30T03:15:04;25.07;;;22.53;;
7231;SDS011;3657;49.630;11.018;2023-01-30T03:17:36;26.50;;;23.40;;
7231;SDS011;3657;49.630;11.018;2023-01-30T03:20:07;25.60;;;22.93;;
7231;SDS011;3657;49.630;11.018;2023-01-30T03:22:36;24.13;;;21.83;;
7231;SDS011;3657;49.630;11.018;2023-01-30T03:25:02;25.87;;;23.17;;
7231;SDS011;3657;49.630;11.018;2023-01-30T03:27:29;25.47;;;22.83;;
7231;SDS011;3657;49.630;11.018;2023-01-30T03:29:57;24.67;;;22.23;;
7231;SDS011;3657;49.630;11.018;2023-01-30T03:32:23;26.40;;;23.57;;
7231;SDS011;3657;49.630;11.018;2023-01-30T03:34:51;24.80;;;22.40;;
7231;SDS011;3657;49.630;11.018;2023-01-30T03:37:18;25.93;;;23.10;;
7231;SDS011;3657;49.630;11.018;2023-01-30T03:39:44;26.30;;;23.53;;
7231;SDS011;3657;49.630;11.018;2023-01-30T03:42:11;24.87;;;22.27;;
7231;SDS011;3657;49.630;11.018;2023-01-30T03:44:38;24.17;;;21.83;;
7231;SDS011;3657;49.630;11.018;2023-01-30T03:47:04;22.30;;;20.27;;
7231;SDS011;3657;49.630;11.018;2023-01-30T03:49:31;24.57;;;22.17;;
7231;SDS011;3657;49.630;11.018;2023-01-30T03:51:59;22.40;;;20.20;;
7231;SDS011;3657;49.630;11.018;2023-01-30T03:54:26;23.83;;;21.43;;
7231;SDS011;3657;49.630;11.018;2023-01-30T03:56:52;22.43;;;20.13;;
7231;SDS011;3657;49.630;11.018;2023-01-30T03:59:19;22.83;;;20.67;;
7231;SDS011;3657;49.630;11.018;2023-01-30T04:01:46;22.33;;;20.10;;
7231;SDS011;3657;49.630;11.018;2023-01-30T04:04:13;22.37;;;20.13;;
7231;SDS011;3657;49.630;11.018;2023-01-30T04:06:39;22.60;;;20.40;;
7231;SDS011;3657;49.630;11.018;2023-01-30T04:09:07;22.47;;;20.20;;
7231;SDS011;3657;49.630;11.018;2023-01-30T04:11:34;23.30;;;21.03;;
7231;SDS011;3657;49.630;11.018;2023-01-30T04:14:01;23.97;;;21.57;;
7231;SDS011;3657;49.630;11.018;2023-01-30T04:16:27;22.40;;;20.20;;
7231;SDS011;3657;49.630;11.018;2023-01-30T04:18:54;22.47;;;20.17;;
7231;SDS011;3657;49.630;11.018;2023-01-30T04:21:21;19.87;;;17.97;;
7231;SDS011;3657;49.630;11.018;2023-01-30T04:23:47;22.60;;;20.30;;
7231;SDS011;3657;49.630;11.018;2023-01-30T04:26:15;20.90;;;18.90;;
7231;SDS011;3657;49.630;11.018;2023-01-30T04:28:42;20.50;;;18.37;;
7231;SDS011;3657;49.630;11.018;2023-01-30T04:31:09;21.07;;;18.87;;
7231;SDS011;3657;49.630;11.018;2023-01-30T04:33:36;22.17;;;20.10;;
7231;SDS011;3657;49.630;11.018;2023-01-30T04:36:05;22.50;;;20.40;;
7231;SDS011;3657;49.630;11.018;2023-01-30T04:38:33;22.40;;;20.30;;
7231;SDS011;3657;49.630;11.018;2023-01-30T04:41:00;18.83;;;17.10;;
7231;SDS011;3657;49.630;11.018;2023-01-30T04:43:28;19.23;;;17.63;;
7231;SDS011;3657;49.630;11.018;2023-01-30T04:45:56;20.10;;;18.30;;
7231;SDS011;3657;49.630;11.018;2023-01-30T04:48:23;19.87;;;18.13;;
7231;SDS011;3657;49.630;11.018;2023-01-30T04:50:51;21.00;;;18.87;;
7231;SDS011;3657;49.630;11.018;2023-01-30T04:53:19;19.93;;;18.20;;
7231;SDS011;3657;49.630;11.018;2023-01-30T04:55:46;20.17;;;18.37;;
7231;SDS011;3657;49.630;11.018;2023-01-30T04:58:13;19.83;;;18.00;;
7231;SDS011;3657;49.630;11.018;2023-01-30T05:00:42;20.47;;;18.50;;
7231;SDS011;3657;49.630;11.018;2023-01-30T05:03:08;21.63;;;19.63;;
7231;SDS011;3657;49.630;11.018;2023-01-30T05:05:35;18.90;;;17.30;;
7231;SDS011;3657;49.630;11.018;2023-01-30T05:08:02;18.73;;;17.03;;
7231;SDS011;3657;49.630;11.018;2023-01-30T05:10:29;20.50;;;18.60;;
7231;SDS011;3657;49.630;11.018;2023-01-30T05:12:55;19.70;;;17.77;;
7231;SDS011;3657;49.630;11.018;2023-01-30T05:15:26;19.40;;;17.60;;
7231;SDS011;3657;49.630;11.018;2023-01-30T05:17:54;21.17;;;19.13;;
7231;SDS011;3657;49.630;11.018;2023-01-30T05:20:20;20.27;;;18.47;;
7231;SDS011;3657;49.630;11.018;2023-01-30T05:22:48;19.80;;;18.00;;
7231;SDS011;3657;49.630;11.018;2023-01-30T05:25:14;22.67;;;20.57;;
7231;SDS011;3657;49.630;11.018;2023-01-30T05:27:41;19.50;;;17.73;;
7231;SDS011;3657;49.630;11.018;2023-01-30T05:30:08;18.60;;;16.90;;
7231;SDS011;3657;49.630;11.018;2023-01-30T05:32:36;20.10;;;18.10;;
7231;SDS011;3657;49.630;11.018;2023-01-30T05:35:04;19.93;;;18.13;;
7231;SDS011;3657;49.630;11.018;2023-01-30T05:37:32;20.10;;;18.13;;
7231;SDS011;3657;49.630;11.018;2023-01-30T05:39:59;19.37;;;17.63;;
7231;SDS011;3657;49.630;11.018;2023-01-30T05:42:25;25.40;;;22.80;;
7231;SDS011;3657;49.630;11.018;2023-01-30T05:44:52;20.40;;;18.43;;
7231;SDS011;3657;49.630;11.018;2023-01-30T05:47:18;19.93;;;18.10;;
7231;SDS011;3657;49.630;11.018;2023-01-30T05:49:45;19.77;;;18.00;;
7231;SDS011;3657;49.630;11.018;2023-01-30T05:52:13;19.40;;;17.60;;
7231;SDS011;3657;49.630;11.018;2023-01-30T05:54:40;19.53;;;17.73;;
7231;SDS011;3657;49.630;11.018;2023-01-30T05:57:06;19.93;;;18.07;;
7231;SDS011;3657;49.630;11.018;2023-01-30T05:59:33;19.97;;;18.13;;
7231;SDS011;3657;49.630;11.018;2023-01-30T06:02:00;19.70;;;18.00;;
7231;SDS011;3657;49.630;11.018;2023-01-30T06:04:26;19.67;;;17.83;;
7231;SDS011;3657;49.630;11.018;2023-01-30T06:06:53;18.23;;;16.73;;
7231;SDS011;3657;49.630;11.018;2023-01-30T06:09:21;18.83;;;17.13;;
7231;SDS011;3657;49.630;11.018;2023-01-30T06:11:48;18.60;;;16.93;;
7231;SDS011;3657;49.630;11.018;2023-01-30T06:14:16;17.80;;;16.23;;
7231;SDS011;3657;49.630;11.018;2023-01-30T06:16:43;18.33;;;16.63;;
7231;SDS011;3657;49.630;11.018;2023-01-30T06:19:09;24.00;;;21.60;;
7231;SDS011;3657;49.630;11.018;2023-01-30T06:21:36;26.20;;;23.40;;
7231;SDS011;3657;49.630;11.018;2023-01-30T06:24:03;22.20;;;19.90;;
7231;SDS011;3657;49.630;11.018;2023-01-30T06:26:31;20.80;;;18.70;;
7231;SDS011;3657;49.630;11.018;2023-01-30T06:28:57;19.87;;;18.17;;
7231;SDS011;3657;49.630;11.018;2023-01-30T06:31:24;20.73;;;18.83;;
7231;SDS011;3657;49.630;11.018;2023-01-30T06:33:51;19.33;;;17.60;;
7231;SDS011;3657;49.630;11.018;2023-01-30T06:36:17;19.17;;;17.50;;
7231;SDS011;3657;49.630;11.018;2023-01-30T06:38:44;20.53;;;18.53;;
7231;SDS011;3657;49.630;11.018;2023-01-30T06:41:11;19.17;;;17.47;;
7231;SDS011;3657;49.630;11.018;2023-01-30T06:43:39;18.67;;;17.07;;
7231;SDS011;3657;49.630;11.018;2023-01-30T06:46:06;18.17;;;16.57;;
7231;SDS011;3657;49.630;11.018;2023-01-30T06:48:33;18.23;;;16.73;;
7231;SDS011;3657;49.630;11.018;2023-01-30T06:51:00;18.40;;;16.80;;
7231;SDS011;3657;49.630;11.018;2023-01-30T06:53:27;19.97;;;18.17;;
7231;SDS011;3657;49.630;11.018;2023-01-30T06:55:55;20.67;;;18.73;;
7231;SDS011;3657;49.630;11.018;2023-01-30T06:58:21;18.90;;;17.23;;
7231;SDS011;3657;49.630;11.018;2023-01-30T07:00:49;18.53;;;16.93;;
7231;SDS011;3657;49.630;11.018;2023-01-30T07:03:16;20.17;;;18.37;;
7231;SDS011;3657;49.630;11.018;2023-01-30T07:05:44;19.40;;;17.60;;
7231;SDS011;3657;49.630;11.018;2023-01-30T07:08:12;20.83;;;18.93;;
7231;SDS011;3657;49.630;11.018;2023-01-30T07:10:40;24.40;;;22.10;;
7231;SDS011;3657;49.630;11.018;2023-01-30T07:13:07;23.40;;;21.03;;
7231;SDS011;3657;49.630;11.018;2023-01-30T07:15:34;21.40;;;19.40;;
7231;SDS011;3657;49.630;11.018;2023-01-30T07:18:02;22.53;;;20.40;;
7231;SDS011;3657;49.630;11.018;2023-01-30T07:20:29;23.57;;;21.23;;
7231;SDS011;3657;49.630;11.018;2023-01-30T07:22:56;21.73;;;19.70;;
7231;SDS011;3657;49.630;11.018;2023-01-30T07:25:23;23.13;;;20.70;;
7231;SDS011;3657;49.630;11.018;2023-01-30T07:27:51;22.77;;;20.57;;
7231;SDS011;3657;49.630;11.018;2023-01-30T07:30:18;21.03;;;19.03;;
7231;SDS011;3657;49.630;11.018;2023-01-30T07:32:48;22.10;;;20.07;;
7231;SDS011;3657;49.630;11.018;2023-01-30T07:35:16;22.30;;;20.20;;
7231;SDS011;3657;49.630;11.018;2023-01-30T07:37:44;20.80;;;19.03;;
7231;SDS011;3657;49.630;11.018;2023-01-30T07:40:11;21.80;;;19.80;;
7231;SDS011;3657;49.630;11.018;2023-01-30T07:42:38;20.73;;;18.80;;
7231;SDS011;3657;49.630;11.018;2023-01-30T07:45:06;18.77;;;17.27;;
7231;SDS011;3657;49.630;11.018;2023-01-30T07:47:33;19.37;;;17.63;;
7231;SDS011;3657;49.630;11.018;2023-01-30T07:50:00;19.07;;;17.47;;
7231;SDS011;3657;49.630;11.018;2023-01-30T07:52:28;19.37;;;17.77;;
7231;SDS011;3657;49.630;11.018;2023-01-30T07:54:55;18.27;;;16.77;;
7231;SDS011;3657;49.630;11.018;2023-01-30T07:57:21;19.77;;;18.07;;
7231;SDS011;3657;49.630;11.018;2023-01-30T07:59:48;18.70;;;17.20;;
7231;SDS011;3657;49.630;11.018;2023-01-30T08:02:15;19.00;;;17.30;;
7231;SDS011;3657;49.630;11.018;2023-01-30T08:04:41;16.87;;;15.47;;
7231;SDS011;3657;49.630;11.018;2023-01-30T08:07:09;19.03;;;17.23;;
7231;SDS011;3657;49.630;11.018;2023-01-30T08:09:37;16.17;;;14.97;;
7231;SDS011;3657;49.630;11.018;2023-01-30T08:12:03;17.50;;;16.07;;
7231;SDS011;3657;49.630;11.018;2023-01-30T08:14:30;16.43;;;15.23;;
7231;SDS011;3657;49.630;11.018;2023-01-30T08:16:57;16.23;;;14.93;;
7231;SDS011;3657;49.630;11.018;2023-01-30T08:19:24;15.87;;;14.70;;
7231;SDS011;3657;49.630;11.018;2023-01-30T08:21:50;16.00;;;14.87;;
7231;SDS011;3657;49.630;11.018;2023-01-30T08:24:17;16.77;;;15.37;;
7231;SDS011;3657;49.630;11.018;2023-01-30T08:26:46;17.53;;;16.23;;
7231;SDS011;3657;49.630;11.018;2023-01-30T08:29:13;16.23;;;15.03;;
7231;SDS011;3657;49.630;11.018;2023-01-30T08:31:39;16.97;;;15.57;;
7231;SDS011;3657;49.630;11.018;2023-01-30T08:34:06;17.30;;;15.70;;
7231;SDS011;3657;49.630;11.018;2023-01-30T08:36:33;15.47;;;14.37;;
7231;SDS011;3657;49.630;11.018;2023-01-30T08:38:59;16.50;;;15.23;;
7231;SDS011;3657;49.630;11.018;2023-01-30T08:41:26;15.43;;;14.33;;
7231;SDS011;3657;49.630;11.018;2023-01-30T08:43:54;15.13;;;14.03;;
7231;SDS011;3657;49.630;11.018;2023-01-30T08:46:20;16.07;;;14.87;;
7231;SDS011;3657;49.630;11.018;2023-01-30T08:48:47;16.23;;;14.93;;
7231;SDS011;3657;49.630;11.018;2023-01-30T08:51:14;18.40;;;16.73;;
7231;SDS011;3657;49.630;11.018;2023-01-30T08:53:41;15.73;;;14.60;;
7231;SDS011;3657;49.630;11.018;2023-01-30T08:56:07;17.53;;;16.23;;
7231;SDS011;3657;49.630;11.018;2023-01-30T08:58:34;14.53;;;13.50;;
7231;SDS011;3657;49.630;11.018;2023-01-30T09:01:05;16.93;;;15.60;;
7231;SDS011;3657;49.630;11.018;2023-01-30T09:03:32;15.53;;;14.23;;
7231;SDS011;3657;49.630;11.018;2023-01-30T09:05:58;16.43;;;15.13;;
7231;SDS011;3657;49.630;11.018;2023-01-30T09:08:25;17.10;;;15.90;;
7231;SDS011;3657;49.630;11.018;2023-01-30T09:10:52;18.10;;;16.47;;
7231;SDS011;3657;49.630;11.018;2023-01-30T09:13:22;17.40;;;15.97;;
7231;SDS011;3657;49.630;11.018;2023-01-30T09:15:48;17.30;;;15.73;;
7231;SDS011;3657;49.630;11.018;2023-01-30T09:18:16;18.90;;;17.03;;
7231;SDS011;3657;49.630;11.018;2023-01-30T09:20:43;17.10;;;15.70;;
7231;SDS011;3657;49.630;11.018;2023-01-30T09:23:10;18.63;;;17.13;;
7231;SDS011;3657;49.630;11.018;2023-01-30T09:25:36;17.17;;;15.77;;
7231;SDS011;3657;49.630;11.018;2023-01-30T09:28:03;18.20;;;16.63;;
7231;SDS011;3657;49.630;11.018;2023-01-30T09:30:30;17.47;;;16.10;;
7231;SDS011;3657;49.630;11.018;2023-01-30T09:32:57;16.70;;;15.30;;
7231;SDS011;3657;49.630;11.018;2023-01-30T09:35:25;15.83;;;14.53;;
7231;SDS011;3657;49.630;11.018;2023-01-30T09:37:52;16.23;;;14.97;;
7231;SDS011;3657;49.630;11.018;2023-01-30T09:40:20;16.53;;;15.23;;
7231;SDS011;3657;49.630;11.018;2023-01-30T09:42:59;15.73;;;14.33;;
7231;SDS011;3657;49.630;11.018;2023-01-30T09:45:42;17.90;;;16.50;;
7231;SDS011;3657;49.630;11.018;2023-01-30T09:48:16;14.60;;;13.60;;
7231;SDS011;3657;49.630;11.018;2023-01-30T09:53:58;15.40;;;14.20;;
7231;SDS011;3657;49.630;11.018;2023-01-30T09:56:34;15.57;;;14.37;;
7231;SDS011;3657;49.630;11.018;2023-01-30T09:59:01;16.53;;;15.23;;
7231;SDS011;3657;49.630;11.018;2023-01-30T10:01:32;16.10;;;14.80;;
7231;SDS011;3657;49.630;11.018;2023-01-30T10:04:10;15.87;;;14.53;;
7231;SDS011;3657;49.630;11.018;2023-01-30T10:06:42;15.13;;;14.00;;
7231;SDS011;3657;49.630;11.018;2023-01-30T10:09:18;16.83;;;15.43;;
7231;SDS011;3657;49.630;11.018;2023-01-30T10:11:55;15.40;;;14.30;;
7231;SDS011;3657;49.630;11.018;2023-01-30T10:14:35;15.60;;;14.40;;
7231;SDS011;3657;49.630;11.018;2023-01-30T10:17:22;16.23;;;15.13;;
7231;SDS011;3657;49.630;11.018;2023-01-30T10:20:02;14.47;;;13.50;;
7231;SDS011;3657;49.630;11.018;2023-01-30T10:22:42;14.33;;;13.40;;
7231;SDS011;3657;49.630;11.018;2023-01-30T10:25:23;15.53;;;14.37;;
7231;SDS011;3657;49.630;11.018;2023-01-30T10:27:55;14.53;;;13.43;;
7231;SDS011;3657;49.630;11.018;2023-01-30T10:30:26;12.17;;;11.40;;
7231;SDS011;3657;49.630;11.018;2023-01-30T10:32:54;14.30;;;13.33;;
7231;SDS011;3657;49.630;11.018;2023-01-30T10:35:29;13.23;;;12.50;;
7231;SDS011;3657;49.630;11.018;2023-01-30T10:38:02;13.37;;;12.43;;
7231;SDS011;3657;49.630;11.018;2023-01-30T10:40:38;13.27;;;12.23;;
7231;SDS011;3657;49.630;11.018;2023-01-30T10:43:12;12.97;;;12.00;;
7231;SDS011;3657;49.630;11.018;2023-01-30T10:45:56;12.23;;;11.53;;
7231;SDS011;3657;49.630;11.018;2023-01-30T10:48:36;13.00;;;12.13;;
7231;SDS011;3657;49.630;11.018;2023-01-30T10:51:23;12.83;;;12.03;;
7231;SDS011;3657;49.630;11.018;2023-01-30T10:53:57;13.10;;;12.17;;
7231;SDS011;3657;49.630;11.018;2023-01-30T10:56:30;12.87;;;12.00;;
7231;SDS011;3657;49.630;11.018;2023-01-30T10:59:05;11.07;;;10.47;;
7231;SDS011;3657;49.630;11.018;2023-01-30T11:01:42;12.33;;;11.53;;
7231;SDS011;3657;49.630;11.018;2023-01-30T11:04:20;11.87;;;11.17;;
7231;SDS011;3657;49.630;11.018;2023-01-30T11:06:51;11.17;;;10.47;;
7231;SDS011;3657;49.630;11.018;2023-01-30T11:09:18;11.27;;;10.67;;
7231;SDS011;3657;49.630;11.018;2023-01-30T11:11:48;10.73;;;10.03;;
7231;SDS011;3657;49.630;11.018;2023-01-30T11:14:16;9.67;;;9.13;;
7231;SDS011;3657;49.630;11.018;2023-01-30T11:16:44;9.63;;;9.13;;
7231;SDS011;3657;49.630;11.018;2023-01-30T11:19:12;9.97;;;9.40;;
7231;SDS011;3657;49.630;11.018;2023-01-30T11:21:41;10.23;;;9.73;;
7231;SDS011;3657;49.630;11.018;2023-01-30T11:24:13;10.63;;;10.03;;
7231;SDS011;3657;49.630;11.018;2023-01-30T11:26:42;10.70;;;10.17;;
7231;SDS011;3657;49.630;11.018;2023-01-30T11:32:00;10.07;;;9.43;;
7231;SDS011;3657;49.630;11.018;2023-01-30T11:34:27;11.37;;;10.77;;
7231;SDS011;3657;49.630;11.018;2023-01-30T11:36:56;10.27;;;9.67;;
7231;SDS011;3657;49.630;11.018;2023-01-30T11:39:38;9.87;;;9.37;;
7231;SDS011;3657;49.630;11.018;2023-01-30T11:42:15;10.53;;;9.93;;
7231;SDS011;3657;49.630;11.018;2023-01-30T11:44:46;11.27;;;10.57;;
7231;SDS011;3657;49.630;11.018;2023-01-30T11:47:21;10.13;;;9.57;;
7231;SDS011;3657;49.630;11.018;2023-01-30T11:49:51;10.07;;;9.57;;
7231;SDS011;3657;49.630;11.018;2023-01-30T11:52:23;10.47;;;9.97;;
7231;SDS011;3657;49.630;11.018;2023-01-30T11:54:51;10.27;;;9.77;;
7231;SDS011;3657;49.630;11.018;2023-01-30T11:57:19;9.67;;;9.23;;
7231;SDS011;3657;49.630;11.018;2023-01-30T11:59:47;11.03;;;10.33;;
7231;SDS011;3657;49.630;11.018;2023-01-30T12:02:22;11.23;;;10.63;;
7231;SDS011;3657;49.630;11.018;2023-01-30T12:04:51;11.00;;;10.40;;
7231;SDS011;3657;49.630;11.018;2023-01-30T12:07:21;11.30;;;10.70;;
7231;SDS011;3657;49.630;11.018;2023-01-30T12:09:50;10.97;;;10.37;;
7231;SDS011;3657;49.630;11.018;2023-01-30T12:15:13;10.97;;;10.47;;
7231;SDS011;3657;49.630;11.018;2023-01-30T12:17:48;10.67;;;10.17;;
7231;SDS011;3657;49.630;11.018;2023-01-30T12:20:22;12.07;;;11.53;;
7231;SDS011;3657;49.630;11.018;2023-01-30T12:22:57;11.40;;;10.77;;
7231;SDS011;3657;49.630;11.018;2023-01-30T12:25:36;12.27;;;11.53;;
7231;SDS011;3657;49.630;11.018;2023-01-30T12:28:10;12.63;;;11.83;;
7231;SDS011;3657;49.630;11.018;2023-01-30T12:30:43;13.50;;;12.70;;
7231;SDS011;3657;49.630;11.018;2023-01-30T12:33:14;11.67;;;11.00;;
7231;SDS011;3657;49.630;11.018;2023-01-30T12:35:46;11.83;;;11.13;;
7231;SDS011;3657;49.630;11.018;2023-01-30T12:38:32;12.33;;;11.63;;
7231;SDS011;3657;49.630;11.018;2023-01-30T12:44:37;11.37;;;10.80;;
7231;SDS011;3657;49.630;11.018;2023-01-30T12:47:20;12.67;;;11.93;;
7231;SDS011;3657;49.630;11.018;2023-01-30T12:50:02;16.10;;;15.10;;
7231;SDS011;3657;49.630;11.018;2023-01-30T12:52:40;13.20;;;12.40;;
7231;SDS011;3657;49.630;11.018;2023-01-30T12:55:29;13.63;;;12.90;;
7231;SDS011;3657;49.630;11.018;2023-01-30T12:58:05;13.80;;;13.00;;
7231;SDS011;3657;49.630;11.018;2023-01-30T13:00:43;12.67;;;11.97;;
7231;SDS011;3657;49.630;11.018;2023-01-30T13:03:24;13.33;;;12.43;;
7231;SDS011;3657;49.630;11.018;2023-01-30T13:05:59;13.07;;;12.37;;
7231;SDS011;3657;49.630;11.018;2023-01-30T13:08:38;13.70;;;13.00;;
7231;SDS011;3657;49.630;11.018;2023-01-30T13:11:18;13.20;;;12.50;;
7231;SDS011;3657;49.630;11.018;2023-01-30T13:13:55;12.93;;;12.13;;
7231;SDS011;3657;49.630;11.018;2023-01-30T13:16:30;12.97;;;12.27;;
7231;SDS011;3657;49.630;11.018;2023-01-30T13:19:04;14.07;;;13.37;;
7231;SDS011;3657;49.630;11.018;2023-01-30T13:21:38;12.93;;;12.17;;
7231;SDS011;3657;49.630;11.018;2023-01-30T13:24:13;13.33;;;12.63;;
7231;SDS011;3657;49.630;11.018;2023-01-30T13:26:47;13.50;;;12.80;;
7231;SDS011;3657;49.630;11.018;2023-01-30T13:29:17;12.87;;;12.17;;
7231;SDS011;3657;49.630;11.018;2023-01-30T13:31:51;14.40;;;13.40;;
7231;SDS011;3657;49.630;11.018;2023-01-30T13:34:23;12.37;;;11.77;;
7231;SDS011;3657;49.630;11.018;2023-01-30T13:36:55;12.27;;;11.57;;
7231;SDS011;3657;49.630;11.018;2023-01-30T13:39:31;12.97;;;12.27;;
7231;SDS011;3657;49.630;11.018;2023-01-30T13:42:04;13.43;;;12.63;;
7231;SDS011;3657;49.630;11.018;2023-01-30T13:44:38;13.03;;;12.17;;
7231;SDS011;3657;49.630;11.018;2023-01-30T13:47:11;13.57;;;12.77;;
7231;SDS011;3657;49.630;11.018;2023-01-30T13:49:48;12.20;;;11.50;;
7231;SDS011;3657;49.630;11.018;2023-01-30T13:52:23;13.30;;;12.60;;
7231;SDS011;3657;49.630;11.018;2023-01-30T13:54:56;13.17;;;12.17;;
7231;SDS011;3657;49.630;11.018;2023-01-30T13:57:31;13.47;;;12.67;;
7231;SDS011;3657;49.630;11.018;2023-01-30T14:00:25;12.37;;;11.70;;
7231;SDS011;3657;49.630;11.018;2023-01-30T14:03:13;12.83;;;11.97;;
7231;SDS011;3657;49.630;11.018;2023-01-30T14:06:05;12.87;;;12.13;;
7231;SDS011;3657;49.630;11.018;2023-01-30T14:08:46;12.07;;;11.47;;
7231;SDS011;3657;49.630;11.018;2023-01-30T14:11:32;12.87;;;12.17;;
7231;SDS011;3657;49.630;11.018;2023-01-30T14:14:21;11.77;;;11.17;;
7231;SDS011;3657;49.630;11.018;2023-01-30T14:16:52;12.63;;;11.83;;
7231;SDS011;3657;49.630;11.018;2023-01-30T14:19:21;11.53;;;10.93;;
7231;SDS011;3657;49.630;11.018;2023-01-30T14:37:28;12.80;;;12.07;;
7231;SDS011;3657;49.630;11.018;2023-01-30T14:40:32;12.53;;;11.93;;
7231;SDS011;3657;49.630;11.018;2023-01-30T14:46:10;12.03;;;11.43;;
7231;SDS011;3657;49.630;11.018;2023-01-30T14:48:53;12.60;;;11.80;;
7231;SDS011;3657;49.630;11.018;2023-01-30T14:51:27;13.07;;;12.10;;
7231;SDS011;3657;49.630;11.018;2023-01-30T14:53:58;11.40;;;10.80;;
7231;SDS011;3657;49.630;11.018;2023-01-30T14:56:40;12.33;;;11.63;;
7231;SDS011;3657;49.630;11.018;2023-01-30T14:59:16;13.07;;;11.90;;
7231;SDS011;3657;49.630;11.018;2023-01-30T15:01:53;12.37;;;11.67;;
7231;SDS011;3657;49.630;11.018;2023-01-30T15:04:23;13.43;;;12.37;;
7231;SDS011;3657;49.630;11.018;2023-01-30T15:06:52;13.23;;;12.43;;
7231;SDS011;3657;49.630;11.018;2023-01-30T15:09:23;13.53;;;12.73;;
7231;SDS011;3657;49.630;11.018;2023-01-30T15:11:52;12.30;;;11.60;;
7231;SDS011;3657;49.630;11.018;2023-01-30T15:14:28;11.53;;;11.03;;
7231;SDS011;3657;49.630;11.018;2023-01-30T15:17:05;11.50;;;10.77;;
7231;SDS011;3657;49.630;11.018;2023-01-30T15:22:29;11.53;;;10.90;;
7231;SDS011;3657;49.630;11.018;2023-01-30T15:25:13;12.47;;;11.67;;
7231;SDS011;3657;49.630;11.018;2023-01-30T15:27:58;11.23;;;10.63;;
7231;SDS011;3657;49.630;11.018;2023-01-30T15:30:37;13.47;;;12.50;;
7231;SDS011;3657;49.630;11.018;2023-01-30T15:33:13;11.80;;;11.10;;
7231;SDS011;3657;49.630;11.018;2023-01-30T15:35:41;10.93;;;10.43;;
7231;SDS011;3657;49.630;11.018;2023-01-30T15:38:17;9.93;;;9.43;;
7231;SDS011;3657;49.630;11.018;2023-01-30T15:40:50;10.73;;;10.13;;